createdAt,value
2019-02-15T00:01:22.810Z,32.90
2019-02-15T00:03:51.339Z,32.90
2019-02-15T00:06:19.883Z,33.00
2019-02-15T00:08:48.418Z,33.00
2019-02-15T00:11:16.891Z,33.00
2019-02-15T00:13:45.352Z,33.00
2019-02-15T00:16:13.926Z,33.00
2019-02-15T00:18:44.103Z,33.00
2019-02-15T00:21:20.082Z,33.00
2019-02-15T00:23:48.677Z,33.00
2019-02-15T00:26:17.162Z,32.90
2019-02-15T00:28:45.710Z,33.00
2019-02-15T00:31:15.802Z,33.00
2019-02-15T00:33:44.355Z,33.00
2019-02-15T00:36:12.831Z,33.00
2019-02-15T00:38:41.412Z,33.00
2019-02-15T00:41:09.964Z,33.00
2019-02-15T00:43:38.518Z,33.00
2019-02-15T00:46:08.661Z,33.00
2019-02-15T00:48:37.250Z,33.00
2019-02-15T00:51:13.334Z,33.00
2019-02-15T00:53:57.556Z,33.10
2019-02-15T00:56:33.527Z,33.10
2019-02-15T00:59:06.300Z,33.10
2019-02-15T01:01:36.511Z,33.00
2019-02-15T01:04:09.456Z,33.10
2019-02-15T01:06:55.308Z,33.10
2019-02-15T01:09:35.043Z,33.10
2019-02-15T01:12:08.175Z,33.10
2019-02-15T01:14:36.732Z,33.20
2019-02-15T01:17:06.464Z,33.20
2019-02-15T01:19:35.037Z,33.20
2019-02-15T01:22:03.654Z,33.20
2019-02-15T01:24:32.197Z,33.30
2019-02-15T01:27:02.325Z,33.20
2019-02-15T01:29:44.527Z,33.20
2019-02-15T01:32:17.333Z,33.20
2019-02-15T01:35:02.164Z,33.30
2019-02-15T01:37:34.928Z,33.30
2019-02-15T01:40:05.231Z,33.30
2019-02-15T01:42:35.418Z,33.30
2019-02-15T01:45:09.395Z,33.40
2019-02-15T01:47:39.999Z,33.40
2019-02-15T01:50:08.560Z,33.40
2019-02-15T01:52:37.067Z,33.40
2019-02-15T01:55:06.460Z,33.30
2019-02-15T01:57:35.034Z,33.30
2019-02-15T02:00:04.338Z,33.30
2019-02-15T02:02:32.887Z,33.40
2019-02-15T02:05:01.996Z,33.40
2019-02-15T02:07:30.712Z,33.40
2019-02-15T02:09:59.403Z,33.40
2019-02-15T02:12:27.988Z,33.40
2019-02-15T02:14:56.541Z,33.30
2019-02-15T02:17:25.087Z,33.30
2019-02-15T02:19:53.569Z,33.30
2019-02-15T02:22:22.166Z,33.30
2019-02-15T02:24:50.626Z,33.30
2019-02-15T02:27:19.125Z,33.30
2019-02-15T02:29:47.686Z,33.40
2019-02-15T02:32:17.528Z,33.30
2019-02-15T02:34:46.094Z,33.30
2019-02-15T02:37:14.647Z,33.30
2019-02-15T02:39:43.212Z,33.20
2019-02-15T02:42:11.779Z,33.20
2019-02-15T02:44:40.311Z,33.20
2019-02-15T02:47:08.867Z,33.30
2019-02-15T02:49:37.411Z,33.30
2019-02-15T02:52:07.534Z,33.30
2019-02-15T02:54:36.079Z,33.30
2019-02-15T02:57:04.527Z,33.30
2019-02-15T02:59:33.003Z,33.40
2019-02-15T03:02:01.569Z,33.40
2019-02-15T03:04:30.121Z,33.40
2019-02-15T03:06:58.893Z,33.40
2019-02-15T03:09:27.437Z,33.50
2019-02-15T03:11:55.993Z,33.40
2019-02-15T03:14:24.524Z,33.50
2019-02-15T03:16:53.029Z,33.50
2019-02-15T03:19:21.639Z,33.50
2019-02-15T03:21:50.193Z,33.50
2019-02-15T03:24:18.750Z,33.50
2019-02-15T03:26:47.294Z,33.50
2019-02-15T03:29:15.824Z,33.60
2019-02-15T03:31:44.312Z,33.50
2019-02-15T03:34:12.863Z,33.50
2019-02-15T03:36:48.743Z,33.50
2019-02-15T03:39:18.854Z,33.60
2019-02-15T03:41:47.322Z,33.50
2019-02-15T03:44:22.344Z,33.60
2019-02-15T03:46:46.001Z,33.60
2019-02-15T03:49:14.558Z,33.60
2019-02-15T03:51:43.106Z,33.60
2019-02-15T03:54:11.651Z,33.60
2019-02-15T03:56:40.115Z,33.50
2019-02-15T03:59:08.745Z,33.50
2019-02-15T04:01:37.283Z,33.40
2019-02-15T04:04:05.852Z,33.40
2019-02-15T04:06:34.411Z,33.50
2019-02-15T04:09:04.710Z,33.50
2019-02-15T04:11:33.240Z,33.60
2019-02-15T04:14:01.856Z,33.50
2019-02-15T04:16:30.429Z,33.50
2019-02-15T04:18:58.977Z,33.50
2019-02-15T04:21:27.538Z,33.50
2019-02-15T04:23:56.092Z,33.40
2019-02-15T04:26:26.183Z,33.50
2019-02-15T04:28:54.719Z,33.50
2019-02-15T04:31:23.275Z,33.50
2019-02-15T04:33:51.832Z,33.50
2019-02-15T04:36:20.390Z,33.50
2019-02-15T04:38:48.946Z,33.50
2019-02-15T04:41:17.491Z,33.60
2019-02-15T04:43:45.962Z,33.50
2019-02-15T04:46:14.513Z,33.50
2019-02-15T04:48:42.977Z,33.50
2019-02-15T04:51:11.470Z,33.50
2019-02-15T04:53:40.035Z,33.50
2019-02-15T04:56:08.587Z,33.50
2019-02-15T04:58:37.069Z,33.50
2019-02-15T05:01:05.694Z,33.50
2019-02-15T05:03:34.236Z,33.50
2019-02-15T05:06:02.758Z,33.40
2019-02-15T05:08:31.327Z,33.50
2019-02-15T05:10:59.862Z,33.60
2019-02-15T05:13:28.330Z,33.50
2019-02-15T05:15:56.803Z,33.60
2019-02-15T05:18:25.362Z,33.60
2019-02-15T05:20:55.388Z,33.60
2019-02-15T05:23:23.859Z,33.60
2019-02-15T05:25:52.411Z,33.60
2019-02-15T05:28:20.956Z,33.60
2019-02-15T05:30:49.528Z,33.60
2019-02-15T05:33:18.080Z,33.60
2019-02-15T05:35:46.635Z,33.60
2019-02-15T05:38:15.238Z,33.60
2019-02-15T05:40:43.798Z,33.70
2019-02-15T05:43:13.340Z,33.70
2019-02-15T05:45:41.907Z,33.80
2019-02-15T05:48:10.422Z,33.80
2019-02-15T05:50:38.983Z,33.70
2019-02-15T05:53:07.530Z,33.80
2019-02-15T05:55:36.077Z,33.70
2019-02-15T05:58:04.684Z,33.70
2019-02-15T06:00:36.952Z,33.70
2019-02-15T06:03:03.384Z,33.70
2019-02-15T06:05:31.900Z,33.70
2019-02-15T06:08:00.390Z,33.60
2019-02-15T06:10:28.930Z,33.70
2019-02-15T06:12:57.488Z,33.70
2019-02-15T06:15:25.966Z,33.60
2019-02-15T06:17:54.521Z,33.60
2019-02-15T06:20:23.138Z,33.60
2019-02-15T06:22:51.672Z,33.60
2019-02-15T06:25:20.223Z,33.60
2019-02-15T06:27:48.768Z,33.70
2019-02-15T06:30:17.246Z,33.60
2019-02-15T06:32:45.804Z,33.60
2019-02-15T06:35:15.743Z,33.60
2019-02-15T06:37:44.259Z,33.70
2019-02-15T06:40:12.729Z,33.70
2019-02-15T06:42:41.300Z,33.70
2019-02-15T06:45:09.916Z,33.80
2019-02-15T06:47:38.462Z,33.80
2019-02-15T06:50:07.957Z,33.80
2019-02-15T06:52:36.469Z,33.80
2019-02-15T06:55:07.874Z,33.80
2019-02-15T06:57:36.334Z,33.80
2019-02-15T07:00:23.928Z,33.80
2019-02-15T07:03:09.172Z,33.90
2019-02-15T07:05:38.455Z,34.10
2019-02-15T07:08:06.988Z,34.00
2019-02-15T07:10:35.552Z,34.00
2019-02-15T07:13:04.216Z,34.10
2019-02-15T07:15:33.998Z,34.20
2019-02-15T07:18:02.667Z,34.30
2019-02-15T07:20:31.290Z,34.40
2019-02-15T07:22:59.866Z,34.40
2019-02-15T07:25:28.439Z,34.40
2019-02-15T07:27:56.988Z,34.40
2019-02-15T07:30:25.536Z,34.50
2019-02-15T07:32:54.651Z,34.50
2019-02-15T07:35:23.231Z,34.60
2019-02-15T07:37:51.775Z,34.60
2019-02-15T07:40:20.309Z,34.60
2019-02-15T07:42:48.800Z,34.60
2019-02-15T07:45:17.903Z,34.70
2019-02-15T07:47:46.604Z,34.80
2019-02-15T07:50:15.074Z,34.90
2019-02-15T07:52:43.629Z,35.00
2019-02-15T07:55:12.202Z,35.00
2019-02-15T07:57:40.771Z,35.10
2019-02-15T08:00:12.195Z,35.10
2019-02-15T08:02:40.784Z,35.20
2019-02-15T08:05:10.341Z,35.10
2019-02-15T08:07:39.461Z,35.10
2019-02-15T08:10:10.377Z,35.10
2019-02-15T08:12:38.925Z,35.10
2019-02-15T08:15:09.437Z,35.20
2019-02-15T08:17:37.902Z,35.20
2019-02-15T08:20:09.356Z,35.20
2019-02-15T08:22:37.901Z,35.20
2019-02-15T08:25:06.804Z,35.10
2019-02-15T08:27:35.263Z,35.10
2019-02-15T08:30:04.095Z,35.10
2019-02-15T08:32:34.613Z,35.10
2019-02-15T08:35:03.407Z,35.50
2019-02-15T08:37:32.207Z,35.10
2019-02-15T08:40:00.713Z,35.10
2019-02-15T08:42:29.236Z,35.10
2019-02-15T08:44:58.035Z,35.10
2019-02-15T08:47:26.540Z,35.10
2019-02-15T08:49:55.078Z,35.00
2019-02-15T08:52:23.562Z,35.00
2019-02-15T08:54:52.123Z,34.90
2019-02-15T08:57:20.705Z,34.90
2019-02-15T08:59:49.229Z,34.90
2019-02-15T09:02:21.530Z,34.90
2019-02-15T09:04:50.079Z,35.00
2019-02-15T09:07:18.629Z,34.90
2019-02-15T09:09:47.106Z,34.90
2019-02-15T09:12:15.643Z,34.90
2019-02-15T09:14:44.209Z,34.90
2019-02-15T09:17:12.766Z,34.90
2019-02-15T09:19:41.321Z,34.90
2019-02-15T09:22:09.883Z,34.80
2019-02-15T09:24:38.438Z,34.80
2019-02-15T09:27:08.773Z,34.00
2019-02-15T09:29:37.332Z,33.90
2019-02-15T09:32:05.862Z,33.90
2019-02-15T09:34:34.354Z,33.90
2019-02-15T09:37:02.824Z,33.90
2019-02-15T09:39:31.356Z,34.30
2019-02-15T09:41:59.906Z,33.80
2019-02-15T09:44:28.367Z,33.80
2019-02-15T09:46:56.867Z,33.90
2019-02-15T09:49:25.443Z,33.80
2019-02-15T09:51:55.527Z,33.70
2019-02-15T09:54:24.112Z,33.70
2019-02-15T09:56:54.332Z,33.70
2019-02-15T09:59:22.849Z,33.60
2019-02-15T10:01:51.334Z,33.60
2019-02-15T10:04:19.966Z,33.50
2019-02-15T10:06:48.444Z,33.60
2019-02-15T10:09:16.927Z,33.60
2019-02-15T10:11:45.482Z,33.60
2019-02-15T10:14:17.060Z,33.60
2019-02-15T10:16:45.643Z,33.60
2019-02-15T10:19:22.189Z,33.60
2019-02-15T10:21:45.772Z,33.90
2019-02-15T10:24:14.417Z,33.50
2019-02-15T10:26:42.944Z,33.40
2019-02-15T10:29:11.520Z,33.40
2019-02-15T10:31:40.166Z,33.40
2019-02-15T10:34:09.622Z,33.40
2019-02-15T10:36:38.379Z,33.20
2019-02-15T10:39:07.235Z,33.20
2019-02-15T10:41:35.798Z,33.20
2019-02-15T10:44:04.463Z,33.00
2019-02-15T10:46:37.790Z,33.00
2019-02-15T10:49:03.809Z,33.00
2019-02-15T10:51:32.317Z,33.00
2019-02-15T10:54:00.897Z,32.80
2019-02-15T10:56:29.461Z,32.80
2019-02-15T10:58:58.098Z,32.40
2019-02-15T11:01:26.807Z,32.30
2019-02-15T11:03:55.378Z,32.40
2019-02-15T11:06:23.971Z,32.40
2019-02-15T11:08:54.977Z,32.40
2019-02-15T11:11:23.472Z,32.20
2019-02-15T11:13:52.108Z,32.20
2019-02-15T11:16:20.621Z,32.00
2019-02-15T11:18:49.089Z,31.90
2019-02-15T11:21:17.594Z,32.00
2019-02-15T11:23:47.340Z,32.10
2019-02-15T11:26:24.405Z,32.00
2019-02-15T11:28:46.188Z,31.90
2019-02-15T11:31:16.845Z,31.80
2019-02-15T11:33:45.030Z,31.80
2019-02-15T11:36:13.509Z,31.50
2019-02-15T11:38:42.064Z,31.60
2019-02-15T11:41:11.425Z,31.80
2019-02-15T11:43:40.085Z,31.80
2019-02-15T11:46:08.644Z,31.70
2019-02-15T11:48:37.204Z,31.70
2019-02-15T11:51:05.825Z,31.40
2019-02-15T11:53:34.517Z,31.30
2019-02-15T11:56:03.071Z,31.20
2019-02-15T11:58:31.641Z,31.30
2019-02-15T12:01:00.217Z,31.00
2019-02-15T12:03:28.797Z,30.60
2019-02-15T12:05:57.593Z,30.60
2019-02-15T12:08:26.087Z,30.60
2019-02-15T12:10:54.663Z,30.20
2019-02-15T12:13:23.144Z,29.90
2019-02-15T12:15:51.715Z,29.80
2019-02-15T12:18:20.255Z,29.90
2019-02-15T12:20:48.811Z,30.00
2019-02-15T12:23:17.372Z,30.00
2019-02-15T12:25:45.919Z,29.80
2019-02-15T12:28:17.029Z,29.40
2019-02-15T12:30:46.343Z,29.20
2019-02-15T12:33:14.913Z,29.20
2019-02-15T12:35:43.471Z,29.20
2019-02-15T12:38:12.050Z,29.20
2019-02-15T12:40:40.598Z,29.20
2019-02-15T12:43:09.157Z,29.10
2019-02-15T12:45:37.806Z,29.00
2019-02-15T12:48:06.366Z,29.10
2019-02-15T12:50:34.906Z,28.70
2019-02-15T12:53:03.404Z,28.30
2019-02-15T12:55:32.087Z,28.20
2019-02-15T12:58:00.662Z,28.30
2019-02-15T13:00:29.187Z,28.40
2019-02-15T13:02:57.999Z,28.30
2019-02-15T13:05:27.124Z,28.10
2019-02-15T13:07:55.672Z,28.10
2019-02-15T13:10:25.895Z,28.00
2019-02-15T13:12:54.449Z,28.00
2019-02-15T13:15:23.008Z,27.90
2019-02-15T13:17:51.550Z,27.90
2019-02-15T13:20:20.408Z,27.70
2019-02-15T13:22:48.971Z,27.20
2019-02-15T13:25:17.623Z,27.20
2019-02-15T13:27:46.170Z,26.90
2019-02-15T13:30:16.285Z,26.80
2019-02-15T13:32:44.843Z,27.20
2019-02-15T13:35:19.433Z,27.50
2019-02-15T13:37:48.008Z,27.40
2019-02-15T13:40:16.568Z,27.20
2019-02-15T13:42:45.209Z,27.60
2019-02-15T13:45:14.020Z,27.70
2019-02-15T13:47:42.603Z,27.20
2019-02-15T13:50:15.310Z,26.80
2019-02-15T13:52:43.940Z,26.20
2019-02-15T13:55:12.537Z,25.80
2019-02-15T13:57:41.040Z,25.70
2019-02-15T14:00:13.909Z,25.40
2019-02-15T14:02:42.486Z,25.00
2019-02-15T14:05:14.102Z,24.50
2019-02-15T14:07:42.648Z,24.50
2019-02-15T14:10:12.651Z,24.00
2019-02-15T14:12:41.783Z,23.70
2019-02-15T14:15:11.596Z,23.10
2019-02-15T14:17:44.812Z,22.60
2019-02-15T14:20:12.074Z,22.60
2019-02-15T14:22:40.701Z,22.40
2019-02-15T14:25:11.013Z,21.60
2019-02-15T14:27:39.616Z,20.90
2019-02-15T14:30:10.616Z,21.00
2019-02-15T14:32:39.168Z,20.10
2019-02-15T14:35:09.778Z,20.10
2019-02-15T14:37:38.332Z,19.90
2019-02-15T14:40:09.431Z,19.70
2019-02-15T14:42:37.982Z,19.90
2019-02-15T14:45:09.034Z,19.70
2019-02-15T14:47:37.565Z,19.90
2019-02-15T14:50:08.026Z,19.90
2019-02-15T14:52:36.553Z,20.00
2019-02-15T14:55:07.538Z,20.20
2019-02-15T14:57:36.174Z,20.00
2019-02-15T15:00:07.756Z,19.90
2019-02-15T15:02:36.329Z,19.70
2019-02-15T15:05:05.926Z,19.60
2019-02-15T15:07:34.486Z,19.40
2019-02-15T15:10:03.050Z,19.40
2019-02-15T15:12:31.610Z,19.20
2019-02-15T15:15:00.271Z,19.00
2019-02-15T15:17:28.826Z,18.90
2019-02-15T15:19:57.374Z,18.80
2019-02-15T15:22:26.468Z,18.40
2019-02-15T15:24:55.060Z,18.20
2019-02-15T15:27:23.616Z,18.20
2019-02-15T15:29:52.269Z,18.20
2019-02-15T15:32:20.817Z,18.30
2019-02-15T15:34:49.360Z,18.40
2019-02-15T15:37:17.846Z,18.60
2019-02-15T15:39:46.400Z,18.80
2019-02-15T15:42:14.965Z,19.00
2019-02-15T15:44:45.997Z,19.30
2019-02-15T15:47:14.713Z,19.50
2019-02-15T15:49:43.285Z,19.70
2019-02-15T15:52:11.839Z,19.90
2019-02-15T15:54:40.483Z,20.20
2019-02-15T15:57:09.063Z,20.50
2019-02-15T15:59:37.674Z,20.80
2019-02-15T16:02:06.242Z,21.10
2019-02-15T16:04:34.770Z,21.20
2019-02-15T16:07:04.604Z,21.40
2019-02-15T16:09:33.166Z,21.60
2019-02-15T16:12:01.733Z,21.70
2019-02-15T16:14:30.339Z,21.90
2019-02-15T16:16:58.911Z,22.10
2019-02-15T16:19:27.436Z,22.20
2019-02-15T16:21:57.440Z,22.30
2019-02-15T16:24:25.996Z,22.50
2019-02-15T16:26:54.485Z,22.70
2019-02-15T16:29:23.041Z,22.90
2019-02-15T16:31:51.610Z,23.00
2019-02-15T16:34:20.198Z,23.00
2019-02-15T16:36:48.749Z,23.20
2019-02-15T16:39:17.393Z,23.40
2019-02-15T16:41:48.592Z,23.50
2019-02-15T16:44:17.173Z,23.70
2019-02-15T16:46:45.732Z,23.80
2019-02-15T16:49:14.297Z,23.90
2019-02-15T16:51:42.776Z,24.00
2019-02-15T16:54:11.332Z,24.10
2019-02-15T16:56:39.999Z,24.40
2019-02-15T16:59:08.549Z,24.40
2019-02-15T17:01:37.192Z,24.50
2019-02-15T17:04:05.839Z,24.70
2019-02-15T17:06:34.393Z,24.80
2019-02-15T17:09:04.807Z,24.90
2019-02-15T17:11:33.387Z,25.00
2019-02-15T17:14:01.933Z,25.10
2019-02-15T17:16:30.519Z,25.20
2019-02-15T17:18:59.871Z,25.30
2019-02-15T17:21:29.258Z,25.40
2019-02-15T17:23:57.809Z,25.60
2019-02-15T17:26:26.416Z,25.70
2019-02-15T17:28:54.924Z,25.80
2019-02-15T17:31:23.480Z,25.90
2019-02-15T17:33:53.430Z,26.00
2019-02-15T17:36:22.033Z,26.00
2019-02-15T17:38:50.568Z,26.10
2019-02-15T17:41:19.889Z,26.20
2019-02-15T17:43:48.383Z,26.30
2019-02-15T17:46:16.936Z,26.40
2019-02-15T17:48:46.481Z,26.50
2019-02-15T17:51:15.068Z,26.70
2019-02-15T17:53:45.174Z,26.80
2019-02-15T17:56:14.026Z,26.90
2019-02-15T17:58:42.581Z,27.00
2019-02-15T18:52:03.552Z,28.40
2019-02-15T18:54:32.102Z,28.30
2019-02-15T18:57:00.669Z,28.90
2019-02-15T18:59:29.153Z,28.60
2019-02-15T19:01:57.720Z,28.70
2019-02-15T19:04:26.306Z,28.70
2019-02-15T19:36:32.747Z,29.50
2019-02-15T19:39:01.879Z,29.50
2019-02-15T19:41:30.468Z,29.50
2019-02-15T19:43:59.119Z,29.60
2019-02-15T19:46:27.677Z,29.60
2019-02-15T19:48:56.253Z,29.70
2019-02-15T19:51:24.854Z,29.70
2019-02-15T19:53:53.440Z,29.70
2019-02-15T19:56:22.150Z,29.70
2019-02-15T19:58:50.708Z,29.70
2019-02-15T20:01:20.383Z,29.70
2019-02-15T20:03:49.030Z,29.70
2019-02-15T20:06:17.965Z,29.70
2019-02-15T20:08:46.591Z,29.80
2019-02-15T20:11:15.156Z,29.80
2019-02-15T20:13:43.754Z,29.90
2019-02-15T20:16:12.367Z,29.90
2019-02-15T20:18:41.017Z,29.90
2019-02-15T20:21:09.656Z,29.90
2019-02-15T20:23:38.245Z,29.90
2019-02-15T20:26:06.912Z,30.00
2019-02-15T20:28:35.496Z,30.00
2019-02-15T20:31:04.145Z,30.00
2019-02-15T20:33:32.804Z,30.00
2019-02-15T20:36:01.440Z,30.00
2019-02-15T20:38:30.083Z,30.00
2019-02-15T20:40:58.632Z,30.00
2019-02-15T20:43:27.271Z,30.00
2019-02-15T20:45:55.825Z,30.00
2019-02-15T20:48:24.321Z,30.00
2019-02-15T20:50:52.874Z,30.00
2019-02-15T20:53:21.433Z,30.00
2019-02-15T20:55:50.006Z,30.10
2019-02-15T20:58:18.592Z,30.20
2019-02-15T21:00:47.160Z,30.10
2019-02-15T21:03:15.792Z,30.10
2019-02-15T21:05:44.439Z,30.10
2019-02-15T21:08:13.000Z,30.20
2019-02-15T21:10:41.579Z,30.20
2019-02-15T21:13:10.143Z,30.20
2019-02-15T21:15:39.259Z,30.30
2019-02-15T21:18:07.852Z,30.30
2019-02-15T21:20:36.380Z,30.30
2019-02-15T21:23:04.877Z,30.20
2019-02-15T21:25:33.456Z,30.20
2019-02-15T21:28:02.659Z,30.20
2019-02-15T21:30:31.228Z,30.30
2019-02-15T21:32:59.811Z,30.30
2019-02-15T21:35:28.503Z,30.30
2019-02-15T21:37:57.047Z,30.30
2019-02-15T21:40:25.641Z,31.00
2019-02-15T21:42:54.193Z,31.10
2019-02-15T21:45:22.731Z,31.10
2019-02-15T21:47:54.045Z,31.10
2019-02-15T21:50:22.647Z,31.10
2019-02-15T21:52:51.751Z,31.10
2019-02-15T21:55:21.886Z,31.20
2019-02-15T21:57:50.493Z,31.10
2019-02-15T22:00:24.291Z,31.10
2019-02-15T22:02:52.819Z,31.10
2019-02-15T22:05:21.319Z,31.20
2019-02-15T22:07:49.875Z,31.20
2019-02-15T22:10:18.975Z,31.20
2019-02-15T22:12:47.490Z,31.30
2019-02-15T22:15:17.210Z,31.20
2019-02-15T22:17:45.703Z,31.30
2019-02-15T22:20:15.584Z,31.40
2019-02-15T22:22:44.141Z,31.40
2019-02-15T22:25:12.788Z,31.50
2019-02-15T22:27:42.123Z,31.90
2019-02-15T22:30:13.763Z,31.50
2019-02-15T22:32:42.668Z,31.60
2019-02-15T22:35:12.016Z,31.60
2019-02-15T22:37:40.619Z,31.50
2019-02-15T22:40:27.242Z,31.60
2019-02-15T22:42:56.698Z,31.60
2019-02-15T22:45:25.250Z,31.60
2019-02-15T22:47:53.872Z,31.60
2019-02-15T22:50:22.426Z,31.60
2019-02-15T22:52:50.968Z,31.70
2019-02-15T22:55:19.459Z,32.10
2019-02-15T22:57:48.074Z,31.60
2019-02-15T23:00:25.465Z,31.70
2019-02-15T23:02:54.158Z,31.70
2019-02-15T23:05:22.788Z,31.70
2019-02-15T23:07:51.428Z,31.70
2019-02-15T23:10:20.113Z,31.70
2019-02-15T23:12:48.621Z,31.70
2019-02-15T23:15:17.225Z,31.60
2019-02-15T23:17:45.845Z,31.60
2019-02-15T23:20:14.450Z,31.60
2019-02-15T23:22:43.012Z,32.10
2019-02-15T23:25:11.548Z,31.80
2019-02-15T23:27:40.139Z,31.70
2019-02-15T23:30:08.839Z,31.70
2019-02-15T23:32:37.395Z,31.60
2019-02-15T23:35:06.282Z,31.60
2019-02-15T23:37:34.848Z,31.60
2019-02-15T23:40:04.426Z,31.60
2019-02-15T23:42:32.909Z,31.70
2019-02-15T23:45:01.555Z,31.70
2019-02-15T23:47:30.121Z,31.70
2019-02-15T23:49:58.678Z,31.70
2019-02-15T23:53:24.358Z,31.80
2019-02-15T23:55:52.892Z,31.80
2019-02-15T23:58:21.468Z,31.70
